Time;durP1;ratioP1;P1;durP2;ratioP2;P2;SDS_P1;SDS_P2;PMS_P1;PMS_P2;Temp;Humidity;BMP_temperature;BMP_pressure;BME280_temperature;BME280_humidity;BME280_pressure;Samples;Min_cycle;Max_cycle;Signal;HPM_P1;HPM_P2
2022/03/08 00:00:42;;;;;;;25.23;13.33;;;;;;;2.62;100.00;100186.91;5014578;28;20203;-74
2022/03/08 00:03:09;;;;;;;23.63;12.80;;;;;;;2.74;100.00;100181.50;5015544;28;20212;-75
2022/03/08 00:05:36;;;;;;;26.80;13.97;;;;;;;2.80;100.00;100186.91;5014345;28;20208;-75
2022/03/08 00:08:03;;;;;;;24.33;13.47;;;;;;;2.79;100.00;100190.25;5013981;28;20199;-75
2022/03/08 00:10:30;;;;;;;23.00;12.67;;;;;;;2.59;100.00;100191.88;5014642;28;20228;-74
2022/03/08 00:12:58;;;;;;;24.63;13.33;;;;;;;2.59;100.00;100185.88;5025595;28;20203;-75
2022/03/08 00:15:26;;;;;;;17.80;9.17;;;;;;;2.68;100.00;100186.31;5033722;28;20208;-74
2022/03/08 00:17:54;;;;;;;21.83;11.97;;;;;;;2.66;100.00;100182.81;5026370;28;20189;-74
2022/03/08 00:20:21;;;;;;;19.90;12.27;;;;;;;2.48;100.00;100188.81;5014248;28;20201;-74
2022/03/08 00:23:32;;;;;;;19.70;11.87;;;;;;;2.37;100.00;100178.84;5027099;28;20196;-74
2022/03/08 00:29:31;;;;;;;21.07;12.33;;;;;;;2.46;100.00;100177.59;5001424;28;20242;-75
2022/03/08 00:31:58;;;;;;;23.63;12.57;;;;;;;2.44;100.00;100168.09;5026134;28;20220;-75
2022/03/08 00:34:25;;;;;;;18.33;10.67;;;;;;;2.56;100.00;100162.69;5013923;28;20204;-74
2022/03/08 00:36:52;;;;;;;19.90;11.43;;;;;;;2.48;100.00;100178.56;5013732;28;20220;-75
2022/03/08 00:39:19;;;;;;;20.63;11.57;;;;;;;2.53;100.00;100167.69;5026455;28;20214;-75
2022/03/08 00:41:46;;;;;;;16.20;8.60;;;;;;;2.48;100.00;100170.88;5032360;28;20199;-75
2022/03/08 00:44:13;;;;;;;19.03;10.40;;;;;;;2.49;100.00;100172.66;5033688;28;20196;-74
2022/03/08 00:46:41;;;;;;;16.27;9.10;;;;;;;2.57;100.00;100172.16;5033513;28;20227;-74
2022/03/08 00:49:08;;;;;;;19.70;11.17;;;;;;;2.48;100.00;100173.44;5033667;28;20192;-75
2022/03/08 00:51:35;;;;;;;19.63;10.63;;;;;;;2.19;100.00;100143.00;5026697;28;20239;-75
2022/03/08 00:54:02;;;;;;;18.73;10.53;;;;;;;2.43;100.00;100156.09;5013506;28;20267;-75
2022/03/08 00:56:29;;;;;;;19.33;10.83;;;;;;;2.52;100.00;100153.13;5013846;28;20207;-75
2022/03/08 00:58:55;;;;;;;16.43;10.10;;;;;;;2.61;100.00;100158.66;5012966;28;20196;-74
2022/03/08 01:01:22;;;;;;;17.27;11.03;;;;;;;2.64;100.00;100159.69;5021310;28;20554;-74
2022/03/08 01:03:50;;;;;;;22.17;12.17;;;;;;;2.49;100.00;100126.59;5015790;28;20196;-75
2022/03/08 01:06:17;;;;;;;21.30;10.50;;;;;;;2.63;100.00;100157.94;5033602;28;20193;-75
2022/03/08 01:08:44;;;;;;;19.13;11.00;;;;;;;2.53;100.00;100158.31;5032648;28;20197;-75
2022/03/08 01:11:11;;;;;;;22.10;12.17;;;;;;;2.73;100.00;100157.56;5030035;28;20231;-75
2022/03/08 01:13:38;;;;;;;23.57;13.23;;;;;;;2.70;100.00;100159.13;5013176;28;20197;-75
2022/03/08 01:16:05;;;;;;;21.33;12.17;;;;;;;2.73;100.00;100155.00;5013416;28;20204;-75
2022/03/08 01:18:32;;;;;;;24.20;12.17;;;;;;;2.84;100.00;100148.72;5013155;28;20707;-75
2022/03/08 01:21:00;;;;;;;20.23;11.73;;;;;;;2.89;100.00;100146.38;5027622;28;20262;-75
2022/03/08 01:23:27;;;;;;;18.70;12.57;;;;;;;2.74;100.00;100112.38;5013253;28;20212;-74
2022/03/08 01:25:53;;;;;;;23.33;11.63;;;;;;;2.99;100.00;100148.53;5012949;28;20671;-74
2022/03/08 01:28:20;;;;;;;18.63;10.67;;;;;;;2.97;100.00;100145.91;5012903;28;20263;-74
2022/03/08 01:30:47;;;;;;;19.47;10.97;;;;;;;2.89;100.00;100131.00;5013160;28;20584;-75
2022/03/08 01:33:14;;;;;;;21.77;10.93;;;;;;;2.83;100.00;100117.91;5029789;28;20192;-74
2022/03/08 01:35:41;;;;;;;17.40;10.87;;;;;;;2.97;100.00;100145.91;5032462;28;20659;-75
2022/03/08 01:38:09;;;;;;;17.93;10.00;;;;;;;3.01;100.00;100146.91;5031822;28;20196;-75
2022/03/08 01:40:36;;;;;;;18.90;11.43;;;;;;;2.89;100.00;100154.06;5013653;28;20192;-74
2022/03/08 01:43:03;;;;;;;19.50;11.17;;;;;;;2.81;100.00;100140.91;5029862;28;20212;-75
2022/03/08 01:45:32;;;;;;;20.00;11.60;;;;;;;2.81;100.00;100152.81;5032205;28;20200;-75
2022/03/08 01:47:59;;;;;;;21.80;13.10;;;;;;;2.81;100.00;100157.94;5032190;28;20224;-75
2022/03/08 01:50:25;;;;;;;21.43;13.17;;;;;;;2.80;100.00;100156.19;5032145;28;20200;-74
2022/03/08 01:52:53;;;;;;;21.20;11.77;;;;;;;2.86;100.00;100159.00;5028441;28;20224;-75
2022/03/08 01:55:22;;;;;;;16.33;10.50;;;;;;;2.95;100.00;100149.22;5031730;28;20724;-74
2022/03/08 01:57:50;;;;;;;21.23;11.10;;;;;;;2.90;100.00;100154.13;5030389;28;20203;-75
2022/03/08 02:00:20;;;;;;;19.17;10.57;;;;;;;2.88;100.00;100159.97;5012340;28;20212;-74
2022/03/08 02:02:47;;;;;;;19.57;11.17;;;;;;;2.61;100.00;100112.59;5022488;28;20211;-74
2022/03/08 02:05:14;;;;;;;24.00;14.00;;;;;;;2.80;100.00;100156.19;5030724;28;20246;-76
2022/03/08 02:07:42;;;;;;;25.83;14.73;;;;;;;2.78;100.00;100157.81;5031004;28;20200;-75
2022/03/08 02:10:10;;;;;;;18.97;11.43;;;;;;;2.34;100.00;100095.16;5031350;28;20211;-75
2022/03/08 02:12:38;;;;;;;18.63;11.27;;;;;;;2.76;100.00;100152.59;5031514;28;20231;-75
2022/03/08 02:15:15;;;;;;;18.83;11.70;;;;;;;2.69;100.00;100147.13;5032204;28;20204;-74
2022/03/08 02:17:42;;;;;;;28.80;14.03;;;;;;;2.76;100.00;100154.28;5025331;28;20196;-75
2022/03/08 02:20:11;;;;;;;26.03;13.43;;;;;;;2.86;100.00;100154.78;5012148;28;20250;-75
2022/03/08 02:22:41;;;;;;;24.63;12.53;;;;;;;2.83;100.00;100143.50;5023664;28;20203;-74
2022/03/08 02:25:09;;;;;;;21.87;12.63;;;;;;;2.71;100.00;100136.13;5032126;28;20223;-74
2022/03/08 02:27:41;;;;;;;21.40;12.77;;;;;;;2.86;100.00;100151.34;5032100;28;20204;-74
2022/03/08 02:30:09;;;;;;;25.07;12.53;;;;;;;2.80;100.00;100148.50;5026427;28;20244;-74
2022/03/08 02:32:36;;;;;;;22.27;12.47;;;;;;;2.84;100.00;100147.84;5012122;28;20264;-75
2022/03/08 02:35:07;;;;;;;24.03;14.40;;;;;;;2.97;100.00;100150.16;5012508;28;20200;-75
2022/03/08 02:37:43;;;;;;;22.63;13.10;;;;;;;3.03;100.00;100150.44;5011600;28;20192;-75
2022/03/08 02:40:12;;;;;;;26.43;16.20;;;;;;;2.92;100.00;100151.63;5016739;28;20669;-74
2022/03/08 02:42:39;;;;;;;25.27;14.80;;;;;;;2.92;100.00;100149.06;5031598;28;20203;-75
2022/03/08 02:45:08;;;;;;;20.57;12.37;;;;;;;3.02;100.00;100150.38;5031744;28;20204;-74
2022/03/08 02:47:35;;;;;;;18.30;11.43;;;;;;;2.99;100.00;100146.88;5031437;28;20659;-75
2022/03/08 02:50:02;;;;;;;20.70;11.93;;;;;;;2.85;100.00;100124.00;5029874;28;20200;-75
2022/03/08 02:52:29;;;;;;;21.73;11.40;;;;;;;3.05;100.00;100146.25;5031416;28;20231;-75
2022/03/08 02:54:57;;;;;;;21.17;11.77;;;;;;;3.09;100.00;100150.72;5031589;28;20196;-75
2022/03/08 02:57:24;;;;;;;22.13;12.30;;;;;;;2.92;100.00;100131.16;5031748;28;20199;-74
2022/03/08 02:59:50;;;;;;;22.27;13.30;;;;;;;2.89;100.00;100154.06;5025215;28;20193;-74
2022/03/08 03:02:17;;;;;;;22.57;13.13;;;;;;;2.79;100.00;100154.41;5012151;28;20228;-75
2022/03/08 03:04:45;;;;;;;25.93;13.87;;;;;;;2.72;100.00;100132.78;5011838;28;20189;-74
2022/03/08 03:07:12;;;;;;;26.13;14.10;;;;;;;2.79;100.00;100154.41;5012370;28;20326;-74
2022/03/08 03:09:39;;;;;;;28.90;13.87;;;;;;;2.83;100.00;100164.00;5026691;28;20189;-74
2022/03/08 03:12:09;;;;;;;23.23;13.23;;;;;;;2.86;100.00;100152.22;5011922;28;20228;-75
2022/03/08 03:14:36;;;;;;;24.27;13.13;;;;;;;2.86;100.00;100156.44;5011456;28;20672;-75
2022/03/08 03:17:03;;;;;;;25.37;12.50;;;;;;;2.81;100.00;100147.69;5011962;28;20197;-74
2022/03/08 03:19:30;;;;;;;23.30;13.43;;;;;;;2.96;100.00;100162.06;5026974;28;20201;-75
2022/03/08 03:21:56;;;;;;;21.97;12.67;;;;;;;2.93;100.00;100163.59;5012896;28;20201;-74
2022/03/08 03:24:23;;;;;;;20.07;11.07;;;;;;;2.80;100.00;100161.28;5017891;28;20627;-75
2022/03/08 03:26:50;;;;;;;24.53;13.07;;;;;;;2.66;100.00;100154.66;5030688;28;20189;-74
2022/03/08 03:29:18;;;;;;;24.77;12.93;;;;;;;2.58;100.00;100163.63;5015100;28;20200;-75
2022/03/08 03:31:45;;;;;;;25.40;13.27;;;;;;;2.57;100.00;100157.63;5035298;28;20199;-74
2022/03/08 03:34:12;;;;;;;23.20;12.03;;;;;;;2.65;100.00;100161.44;5035255;28;20234;-75
2022/03/08 03:36:38;;;;;;;29.50;14.67;;;;;;;2.70;100.00;100166.78;5034659;28;20207;-75
2022/03/08 03:39:06;;;;;;;25.00;13.50;;;;;;;2.42;100.00;100127.13;5034127;28;20693;-74
2022/03/08 03:41:33;;;;;;;19.07;11.17;;;;;;;2.56;100.00;100155.91;5016280;28;20193;-75
2022/03/08 03:44:00;;;;;;;21.57;12.30;;;;;;;2.27;100.00;100115.25;5014932;28;20671;-75
2022/03/08 03:46:28;;;;;;;21.80;12.33;;;;;;;2.67;100.00;100161.53;5032742;28;20216;-75
2022/03/08 03:48:55;;;;;;;20.27;11.90;;;;;;;2.72;100.00;100160.06;5026986;28;20193;-75
2022/03/08 03:51:21;;;;;;;24.03;13.70;;;;;;;2.73;100.00;100159.25;5014846;28;20746;-75
2022/03/08 03:53:48;;;;;;;30.60;15.27;;;;;;;2.66;100.00;100162.31;5014891;28;20232;-75
2022/03/08 03:56:15;;;;;;;29.20;15.40;;;;;;;2.73;100.00;100164.38;5015149;28;20196;-74
2022/03/08 03:58:42;;;;;;;21.77;13.30;;;;;;;2.72;100.00;100162.59;5023075;28;20244;-74
2022/03/08 04:01:08;;;;;;;24.43;12.97;;;;;;;2.66;100.00;100163.22;5024450;28;20208;-75
2022/03/08 04:03:37;;;;;;;21.63;13.33;;;;;;;2.76;100.00;100159.41;5019922;28;20635;-75
2022/03/08 04:06:04;;;;;;;22.83;13.20;;;;;;;2.67;100.00;100158.97;5032811;28;20203;-75
2022/03/08 04:08:30;;;;;;;26.47;14.47;;;;;;;2.73;100.00;100164.38;5022159;28;20207;-76
2022/03/08 04:10:57;;;;;;;28.27;14.63;;;;;;;2.52;100.00;100166.81;5034254;28;20200;-76
2022/03/08 04:13:24;;;;;;;27.20;13.63;;;;;;;2.58;100.00;100168.75;5027324;28;20235;-76
2022/03/08 04:15:51;;;;;;;22.60;13.70;;;;;;;2.68;100.00;100166.72;5017087;28;20683;-76
2022/03/08 04:18:18;;;;;;;24.10;13.63;;;;;;;2.67;100.00;100164.97;5017794;28;20632;-76
2022/03/08 04:20:46;;;;;;;26.33;14.00;;;;;;;2.73;100.00;100165.25;5032934;28;20193;-75
2022/03/08 04:23:13;;;;;;;21.53;13.23;;;;;;;2.56;100.00;100172.94;5021717;28;20208;-76
2022/03/08 04:25:40;;;;;;;22.47;13.13;;;;;;;2.07;100.00;100096.38;5025860;28;20205;-76
2022/03/08 04:28:07;;;;;;;22.33;12.97;;;;;;;2.49;100.00;100169.22;5021486;28;20199;-76
2022/03/08 04:30:34;;;;;;;29.75;18.95;;;;;;;3.12;100.00;100160.22;5030797;28;20504;-76
2022/03/08 04:33:01;;;;;;;24.53;14.00;;;;;;;3.05;100.00;100158.19;5019188;28;20228;-76
2022/03/08 04:35:28;;;;;;;26.23;13.70;;;;;;;2.98;100.00;100164.72;5037001;28;20671;-76
2022/03/08 04:37:56;;;;;;;23.40;12.90;;;;;;;2.99;100.00;100159.69;5034728;28;20200;-76
2022/03/08 04:40:23;;;;;;;16.67;9.83;;;;;;;2.46;100.00;100120.47;5028512;28;20197;-75
2022/03/08 04:42:49;;;;;;;19.70;11.27;;;;;;;2.71;100.00;100161.72;5017941;28;20705;-76
2022/03/08 04:45:17;;;;;;;23.17;13.23;;;;;;;2.70;100.00;100177.03;5016855;28;20208;-76
2022/03/08 04:47:44;;;;;;;18.60;10.67;;;;;;;2.52;100.00;100160.78;5016388;28;20240;-76
2022/03/08 04:50:14;;;;;;;20.00;13.33;;;;;;;2.55;100.00;100168.63;5027935;28;20205;-76
2022/03/08 04:52:41;;;;;;;19.37;11.57;;;;;;;2.66;100.00;100175.13;5016320;28;20256;-75
2022/03/08 04:55:10;;;;;;;17.93;11.67;;;;;;;2.68;100.00;100171.81;5033331;28;20604;-76
2022/03/08 04:57:37;;;;;;;16.07;10.70;;;;;;;2.60;100.00;100162.06;5035569;28;20211;-76
2022/03/08 05:00:05;;;;;;;23.63;13.70;;;;;;;2.65;100.00;100169.13;5031535;28;20207;-76
2022/03/08 05:02:32;;;;;;;19.40;12.63;;;;;;;2.65;100.00;100171.69;5024943;28;20595;-76
2022/03/08 05:04:59;;;;;;;18.40;10.67;;;;;;;2.64;100.00;100163.94;5035226;28;20582;-76
2022/03/08 05:07:26;;;;;;;24.20;13.07;;;;;;;2.60;100.00;100175.72;5033622;28;20250;-74
2022/03/08 05:09:53;;;;;;;24.00;12.60;;;;;;;2.70;100.00;100184.72;5017893;28;20193;-75
2022/03/08 05:12:21;;;;;;;20.87;13.57;;;;;;;2.65;100.00;100183.59;5023050;28;20228;-75
2022/03/08 05:14:48;;;;;;;24.70;13.30;;;;;;;2.71;100.00;100181.34;5031157;28;20193;-75
2022/03/08 05:17:14;;;;;;;21.60;12.37;;;;;;;2.73;100.00;100184.84;5014184;28;20220;-76
2022/03/08 05:19:41;;;;;;;19.70;11.93;;;;;;;2.79;100.00;100190.25;5013338;28;20197;-76
2022/03/08 05:22:08;;;;;;;19.63;11.57;;;;;;;2.62;100.00;100175.78;5018868;28;20592;-76
2022/03/08 05:24:35;;;;;;;17.37;10.23;;;;;;;2.62;100.00;100173.22;5033808;28;20203;-76
2022/03/08 05:27:02;;;;;;;18.50;10.10;;;;;;;2.65;100.00;100170.81;5030849;28;20195;-77
2022/03/08 05:29:31;;;;;;;21.43;11.83;;;;;;;2.88;100.00;100183.91;5032609;28;20654;-77
2022/03/08 05:31:58;;;;;;;19.17;11.70;;;;;;;2.85;100.00;100186.28;5025763;28;20278;-78
2022/03/08 05:34:24;;;;;;;18.93;11.23;;;;;;;2.79;100.00;100178.34;5030095;28;20230;-77
2022/03/08 05:36:51;;;;;;;19.37;10.37;;;;;;;2.52;100.00;100153.13;5023439;28;20201;-78
2022/03/08 05:39:18;;;;;;;22.97;11.80;;;;;;;2.61;100.00;100153.53;5012037;28;20220;-77
2022/03/08 05:41:45;;;;;;;20.97;10.33;;;;;;;2.96;100.00;100191.94;5020146;28;20679;-77
2022/03/08 05:44:12;;;;;;;15.57;9.53;;;;;;;2.92;100.00;100192.59;5011327;28;20215;-77
2022/03/08 05:46:40;;;;;;;15.70;10.17;;;;;;;3.04;100.00;100202.50;5012987;28;20212;-78
2022/03/08 05:49:07;;;;;;;17.13;9.63;;;;;;;3.03;100.00;100206.78;5016547;28;20679;-77
2022/03/08 05:51:34;;;;;;;17.23;9.80;;;;;;;2.84;100.00;100199.03;5029404;28;20580;-77
2022/03/08 05:54:00;;;;;;;21.27;11.57;;;;;;;3.08;100.00;100205.31;5020827;28;20228;-77
2022/03/08 05:56:27;;;;;;;18.63;10.67;;;;;;;3.16;100.00;100209.09;5014726;28;20199;-78
2022/03/08 05:58:54;;;;;;;17.07;11.10;;;;;;;3.08;100.00;100204.41;5013754;28;20593;-77
2022/03/08 06:01:21;;;;;;;19.10;11.37;;;;;;;2.54;100.00;100128.47;5016111;28;20688;-77
2022/03/08 06:03:49;;;;;;;17.50;10.63;;;;;;;3.17;100.00;100218.56;5029757;28;20588;-78
2022/03/08 06:06:16;;;;;;;23.17;13.63;;;;;;;3.10;100.00;100216.50;5031994;28;20197;-77
2022/03/08 06:08:42;;;;;;;22.10;12.90;;;;;;;3.31;100.00;100220.06;5031291;28;20207;-78
2022/03/08 06:11:09;;;;;;;21.67;13.50;;;;;;;3.32;100.00;100201.28;5018857;28;20689;-78
2022/03/08 06:13:36;;;;;;;21.90;12.77;;;;;;;3.43;100.00;100215.47;5028258;28;20229;-78
2022/03/08 06:16:03;;;;;;;23.70;12.87;;;;;;;3.47;100.00;100222.50;5014395;28;20682;-78
2022/03/08 06:18:30;;;;;;;22.90;12.83;;;;;;;3.53;100.00;100231.28;5022638;28;20204;-77
2022/03/08 06:20:58;;;;;;;24.03;13.83;;;;;;;3.69;100.00;100231.16;5028484;28;20192;-78
2022/03/08 06:23:25;;;;;;;23.00;13.10;;;;;;;3.73;100.00;100227.91;5031885;28;20196;-77
2022/03/08 06:25:52;;;;;;;22.07;12.77;;;;;;;3.27;100.00;100212.16;5032380;28;20203;-76
2022/03/08 06:28:19;;;;;;;27.57;14.33;;;;;;;3.43;100.00;100210.34;5031368;28;20196;-77
2022/03/08 06:30:46;;;;;;;23.80;14.27;;;;;;;3.79;100.00;100231.63;5031734;28;20196;-77
2022/03/08 06:33:12;;;;;;;27.03;14.50;;;;;;;3.74;100.00;100222.88;5031587;28;20722;-77
2022/03/08 06:35:39;;;;;;;25.63;15.63;;;;;;;4.01;100.00;100236.00;5031309;28;20227;-76
2022/03/08 06:38:07;;;;;;;21.37;12.33;;;;;;;4.18;100.00;100234.16;5018142;28;20695;-73
2022/03/08 06:40:34;;;;;;;27.27;14.97;;;;;;;4.26;100.00;100240.47;5012616;28;20201;-76
2022/03/08 06:43:01;;;;;;;27.03;14.47;;;;;;;4.25;100.00;100242.16;5012098;28;20594;-77
2022/03/08 06:45:28;;;;;;;24.30;13.93;;;;;;;4.27;100.00;100238.00;5026499;28;20235;-75
2022/03/08 06:47:55;;;;;;;27.53;15.40;;;;;;;3.71;100.00;100216.72;5029671;28;20212;-75
2022/03/08 06:50:21;;;;;;;28.63;15.57;;;;;;;3.68;100.00;100249.88;5031543;28;20690;-75
2022/03/08 06:52:49;;;;;;;28.27;16.17;;;;;;;3.37;100.00;100256.19;5031477;28;20630;-75
2022/03/08 06:55:17;;;;;;;33.10;15.23;;;;;;;3.35;100.00;100259.50;5032254;28;20246;-75
2022/03/08 06:57:44;;;;;;;34.57;17.60;;;;;;;3.26;100.00;100252.25;5034125;28;20188;-76
2022/03/08 07:00:12;;;;;;;31.57;16.27;;;;;;;3.45;100.00;100251.44;5035870;28;20570;-75
2022/03/08 07:02:39;;;;;;;36.47;16.87;;;;;;;3.30;100.00;100250.72;5035771;28;20258;-76
2022/03/08 07:05:06;;;;;;;39.17;19.53;;;;;;;3.48;100.00;100251.56;5035545;28;20187;-78
2022/03/08 07:07:33;;;;;;;43.77;23.07;;;;;;;3.60;100.00;100251.25;5034607;28;20204;-75
2022/03/08 07:09:59;;;;;;;41.77;22.47;;;;;;;4.03;100.00;100242.09;5035496;28;20192;-76
2022/03/08 07:12:28;;;;;;;42.90;23.17;;;;;;;4.33;100.00;100233.13;5035329;28;20200;-76
2022/03/08 07:14:54;;;;;;;44.70;22.30;;;;;;;4.23;100.00;100236.13;5035055;28;20224;-76
2022/03/08 07:17:21;;;;;;;43.17;21.57;;;;;;;4.56;100.00;100231.50;5035109;28;20204;-76
2022/03/08 07:19:48;;;;;;;49.27;21.67;;;;;;;4.37;100.00;100255.53;5035363;28;20196;-74
2022/03/08 07:22:17;;;;;;;112.90;50.40;;;;;;;4.60;100.00;100247.91;5035254;28;20192;-75
2022/03/08 07:24:44;;;;;;;59.73;30.43;;;;;;;4.75;100.00;100249.41;5034858;28;20200;-74
2022/03/08 07:27:11;;;;;;;45.37;21.33;;;;;;;4.81;100.00;100257.38;5035204;28;20192;-75
2022/03/08 07:29:39;;;;;;;28.90;16.83;;;;;;;4.80;100.00;100257.31;5035222;28;20192;-75
2022/03/08 07:32:06;;;;;;;41.40;19.97;;;;;;;4.58;100.00;100263.25;5034810;28;20204;-75
2022/03/08 07:34:33;;;;;;;36.53;17.43;;;;;;;4.19;100.00;100229.09;5034972;28;20243;-75
2022/03/08 07:37:00;;;;;;;24.77;13.67;;;;;;;4.15;100.00;100260.56;5035022;28;20192;-74
2022/03/08 07:39:27;;;;;;;20.43;13.10;;;;;;;3.37;100.00;100261.34;5034213;28;20203;-75
2022/03/08 07:41:54;;;;;;;14.40;9.17;;;;;;;3.30;100.00;100256.72;5034578;28;20200;-76
2022/03/08 07:44:21;;;;;;;21.00;11.50;;;;;;;3.15;100.00;100252.56;5035026;28;20262;-75
2022/03/08 07:46:49;;;;;;;17.40;8.53;;;;;;;2.75;100.00;100255.78;5034596;28;20331;-74
2022/03/08 07:49:16;;;;;;;21.60;11.13;;;;;;;2.73;100.00;100251.41;5035514;28;20193;-75
2022/03/08 07:51:43;;;;;;;23.23;13.67;;;;;;;2.75;100.00;100239.53;5034670;28;20196;-75
2022/03/08 07:54:10;;;;;;;39.30;20.37;;;;;;;2.78;100.00;100235.44;5034361;28;20274;-75
2022/03/08 07:56:36;;;;;;;38.00;20.00;;;;;;;2.94;100.00;100242.19;5034706;28;20199;-75
2022/03/08 07:59:03;;;;;;;33.83;18.80;;;;;;;2.80;100.00;100236.41;5034388;28;20200;-74
2022/03/08 08:01:30;;;;;;;28.00;16.50;;;;;;;2.91;100.00;100234.38;5034350;28;20282;-75
2022/03/08 08:03:58;;;;;;;34.00;18.30;;;;;;;3.02;100.00;100235.75;5034432;28;20197;-75
2022/03/08 08:06:25;;;;;;;29.00;13.53;;;;;;;3.00;100.00;100237.34;5034478;28;20204;-75
2022/03/08 08:08:52;;;;;;;20.40;11.67;;;;;;;2.84;100.00;100245.13;5031996;28;20204;-75
2022/03/08 08:11:19;;;;;;;14.83;8.57;;;;;;;2.49;100.00;100241.75;5034411;28;20634;-75
2022/03/08 08:13:48;;;;;;;40.47;18.27;;;;;;;2.56;100.00;100248.03;5034389;28;20227;-75
2022/03/08 08:16:15;;;;;;;31.33;15.27;;;;;;;2.37;100.00;100236.00;5034080;28;20203;-75
2022/03/08 08:18:41;;;;;;;31.50;16.00;;;;;;;2.24;100.00;100202.97;5033980;28;20204;-76
2022/03/08 08:21:09;;;;;;;39.30;19.40;;;;;;;2.66;100.00;100234.00;5033847;28;20192;-75
2022/03/08 08:23:36;;;;;;;34.77;19.73;;;;;;;2.73;100.00;100241.16;5034127;28;20207;-75
2022/03/08 08:26:03;;;;;;;40.30;23.13;;;;;;;2.96;100.00;100238.88;5034097;28;20193;-76
2022/03/08 08:28:30;;;;;;;37.07;20.63;;;;;;;2.83;100.00;100233.13;5033716;28;20216;-75
2022/03/08 08:30:57;;;;;;;36.57;19.93;;;;;;;2.85;100.00;100223.84;5034140;28;20241;-75
2022/03/08 08:33:24;;;;;;;33.13;17.80;;;;;;;2.71;100.00;100235.97;5033528;28;20224;-74
2022/03/08 08:35:50;;;;;;;36.93;19.40;;;;;;;2.76;100.00;100223.38;5033984;28;20196;-75
2022/03/08 08:38:19;;;;;;;45.83;25.33;;;;;;;2.84;100.00;100193.91;5033330;28;20200;-73
2022/03/08 08:40:45;;;;;;;41.37;22.03;;;;;;;2.91;100.00;100226.69;5033799;28;20199;-75
2022/03/08 08:43:12;;;;;;;34.80;19.30;;;;;;;2.92;100.00;100223.34;5033451;28;20678;-74
2022/03/08 08:45:39;;;;;;;34.13;20.07;;;;;;;2.80;100.00;100207.38;5033332;28;20278;-75
2022/03/08 08:48:07;;;;;;;35.73;18.83;;;;;;;3.02;100.00;100235.75;5033338;28;20228;-74
2022/03/08 08:50:35;;;;;;;37.20;21.33;;;;;;;3.10;100.00;100238.69;5033331;28;20196;-74
2022/03/08 08:53:02;;;;;;;28.07;15.80;;;;;;;2.76;100.00;100231.94;5033234;28;20192;-75
2022/03/08 08:55:30;;;;;;;35.57;17.83;;;;;;;2.76;100.00;100231.06;5033242;28;20239;-74
2022/03/08 08:57:57;;;;;;;37.67;19.17;;;;;;;2.88;100.00;100236.78;5033190;28;20717;-73
2022/03/08 09:00:23;;;;;;;44.70;22.10;;;;;;;2.98;100.00;100238.97;5033129;28;20203;-73
2022/03/08 09:02:52;;;;;;;33.13;18.30;;;;;;;2.95;100.00;100228.59;5033705;28;20220;-72
2022/03/08 09:05:18;;;;;;;43.13;22.00;;;;;;;2.82;100.00;100204.06;5033086;28;20288;-72
2022/03/08 09:07:45;;;;;;;39.77;17.87;;;;;;;3.80;100.00;100217.13;5032279;28;20678;-73
2022/03/08 09:10:13;;;;;;;35.97;18.90;;;;;;;3.98;100.00;100217.91;5033757;28;20199;-72
2022/03/08 09:12:41;;;;;;;27.40;15.57;;;;;;;3.45;100.00;100229.25;5033072;28;20196;-72
2022/03/08 09:15:09;;;;;;;20.87;12.87;;;;;;;3.56;100.00;100216.03;5032986;28;20613;-73
2022/03/08 09:17:37;;;;;;;22.87;12.40;;;;;;;3.47;100.00;100232.75;5033187;28;20200;-73
2022/03/08 09:20:04;;;;;;;21.47;11.23;;;;;;;3.53;100.00;100242.41;5032978;28;20233;-73
2022/03/08 09:22:31;;;;;;;20.07;11.43;;;;;;;3.47;100.00;100245.56;5032680;28;20215;-73
2022/03/08 09:24:58;;;;;;;16.70;10.43;;;;;;;3.01;100.00;100210.94;5032943;28;20192;-76
2022/03/08 09:27:25;;;;;;;18.43;11.63;;;;;;;3.00;100.00;100242.47;5032906;28;20215;-73
2022/03/08 09:29:53;;;;;;;18.30;11.37;;;;;;;3.17;100.00;100246.72;5032723;28;20266;-73
2022/03/08 09:32:20;;;;;;;18.17;11.30;;;;;;;3.16;100.00;100234.72;5032675;28;20273;-72
2022/03/08 09:34:46;;;;;;;17.53;11.83;;;;;;;3.28;100.00;100249.78;5032349;28;20239;-74
2022/03/08 09:37:13;;;;;;;22.90;11.73;;;;;;;3.21;100.00;100248.59;5032177;28;20197;-72
2022/03/08 09:39:40;;;;;;;21.33;13.40;;;;;;;3.26;100.00;100251.38;5032284;28;20207;-73
2022/03/08 09:42:07;;;;;;;18.53;11.50;;;;;;;3.47;100.00;100248.13;5032332;28;20200;-73
2022/03/08 09:44:34;;;;;;;19.67;10.03;;;;;;;3.34;100.00;100256.06;5032590;28;20593;-73
2022/03/08 09:47:02;;;;;;;19.17;12.23;;;;;;;3.64;100.00;100250.59;5032023;28;20223;-72
2022/03/08 09:49:29;;;;;;;20.43;12.30;;;;;;;3.60;100.00;100248.69;5032585;28;20196;-74
2022/03/08 09:51:57;;;;;;;21.57;12.97;;;;;;;3.42;100.00;100236.78;5032186;28;20698;-73
2022/03/08 09:54:24;;;;;;;28.23;15.00;;;;;;;3.63;100.00;100259.09;5032032;28;20239;-73
2022/03/08 09:56:51;;;;;;;17.13;10.93;;;;;;;3.42;100.00;100249.59;5032125;28;20196;-73
2022/03/08 09:59:18;;;;;;;20.60;11.93;;;;;;;2.96;100.00;100225.22;5032234;28;20219;-72
2022/03/08 10:01:46;;;;;;;21.53;13.90;;;;;;;3.41;100.00;100255.53;5032377;28;20199;-74
2022/03/08 10:04:18;;;;;;;19.03;12.10;;;;;;;3.54;100.00;100256.09;5031847;28;20200;-73
2022/03/08 10:06:47;;;;;;;18.93;11.37;;;;;;;3.54;100.00;100266.34;5031937;28;20188;-72
2022/03/08 10:09:15;;;;;;;20.73;11.43;;;;;;;3.68;100.00;100262.72;5031383;28;20207;-73
2022/03/08 10:11:42;;;;;;;22.47;13.30;;;;;;;3.61;100.00;100269.25;5031921;28;20193;-73
2022/03/08 10:14:13;;;;;;;24.70;14.07;;;;;;;3.80;100.00;100247.88;5031771;28;20227;-73
2022/03/08 10:16:43;;;;;;;21.97;13.30;;;;;;;3.82;100.00;100266.75;5032308;28;20215;-73
2022/03/08 10:19:11;;;;;;;26.23;12.90;;;;;;;3.70;100.00;100250.84;5031763;28;20196;-73
2022/03/08 10:21:42;;;;;;;15.93;9.97;;;;;;;3.71;100.00;100266.28;5032104;28;20200;-73
2022/03/08 10:24:14;;;;;;;14.33;8.97;;;;;;;3.67;100.00;100271.22;5031721;28;20287;-73
2022/03/08 10:26:47;;;;;;;16.20;10.30;;;;;;;3.73;100.00;100277.50;5032374;28;20283;-73
2022/03/08 10:29:14;;;;;;;21.03;11.83;;;;;;;3.23;100.00;100217.94;5031947;28;20203;-73
2022/03/08 10:31:41;;;;;;;18.77;11.53;;;;;;;3.37;100.00;100220.34;5031278;28;20196;-74
2022/03/08 10:34:15;;;;;;;22.83;11.90;;;;;;;3.68;100.00;100252.44;5031358;28;20701;-72
2022/03/08 10:36:59;;;;;;;22.47;12.30;;;;;;;3.85;100.00;100238.72;5031964;28;20200;-70
2022/03/08 10:39:26;;;;;;;24.33;13.13;;;;;;;3.95;100.00;100284.47;5031151;28;20231;-71
2022/03/08 10:41:56;;;;;;;25.60;14.00;;;;;;;3.57;100.00;100228.06;5031615;28;20211;-73
2022/03/08 10:44:41;;;;;;;22.70;12.10;;;;;;;3.77;100.00;100275.97;5031926;28;20640;-70
2022/03/08 10:47:10;;;;;;;36.70;17.83;;;;;;;4.08;100.00;100289.31;5031371;28;20305;-71
2022/03/08 10:49:49;;;;;;;27.17;15.40;;;;;;;4.20;100.00;100274.47;5031701;28;20200;-73
2022/03/08 10:52:17;;;;;;;34.27;17.10;;;;;;;4.21;100.00;100278.78;5031727;28;20199;-74
2022/03/08 10:54:45;;;;;;;34.13;16.23;;;;;;;3.99;100.00;100286.38;5031536;28;20227;-73
2022/03/08 10:57:12;;;;;;;26.27;14.87;;;;;;;4.12;100.00;100288.66;5031426;28;20674;-72
2022/03/08 10:59:54;;;;;;;27.50;15.70;;;;;;;4.00;100.00;100277.84;5031593;28;20570;-71
2022/03/08 11:02:21;;;;;;;51.27;22.33;;;;;;;3.43;100.00;100202.66;5031646;28;20221;-74
2022/03/08 11:04:49;;;;;;;40.10;16.80;;;;;;;3.89;100.00;100277.38;5031652;28;20203;-73
2022/03/08 11:07:17;;;;;;;30.10;14.87;;;;;;;3.75;100.00;100275.88;5031041;28;20275;-73
2022/03/08 11:09:46;;;;;;;119.63;30.97;;;;;;;3.63;100.00;100284.72;5031385;28;20204;-72
2022/03/08 11:12:14;;;;;;;88.13;29.50;;;;;;;3.66;100.00;100261.78;5031251;28;20196;-72
2022/03/08 11:14:40;;;;;;;66.77;24.53;;;;;;;3.75;100.00;100275.88;5031170;28;20318;-74